Terminal Aerodrome Forecast
Issued by NWS Binghamton, NY

Home | Current Version | Previous Version | Text Only | Print | Product List | Glossary On
Versions: 1 2 3 4 5 6 7 8 9 10 11 12 13 14 15
000
FTUS41 KBGM 252320
TAFSYR
TAF
KSYR 252320Z 2600/2624 28004KT P6SM SCT080
     FM260200 VRB03KT P6SM SCT250
     FM261800 21007KT P6SM SCT050 BKN100=

USA.gov is the U.S. government's official web portal to all federal, state and local government web resources and services.